My Meet Scores
Samantha Morava, Gym Stars ETC - MyMeetScores.com
Top100 | Top Teams | Upcoming Meets | Completed Meets | Latest | Add Scores | Help| Support | Bookmark and Share

Samantha Morava, Gym Stars ETC
Personal Bests
LevelVault BarsBeamFloorAA
XG9.0009.525 9.4509.42537.050
XS9.4759.700 9.8259.60038.200
Meet Scores
Date Meet Team Session Level Division Vault Bars Beam Floor AA
2019-05-03 2019 Region 5 Xcel Championships Gym Stars ETC 06O XG JR D 8.750 31T 9.525 7 9.450 10T 9.325 25 37.050 13
2019-04-05 2019 Illinois XG, XP, XD State Championships Gym Stars ETC 5 XG Jr E 9.000 13T 9.450 5T 9.400 8T 9.175 12T 37.025 7
2019-03-08 Lucky Invite Gym Stars ETC B03 XG Jr B 8.500 12T 9.425 3 8.325 18 9.250 6T 35.500 11
2019-02-15 Women's Midwest Open Gym Stars ETC 10 XG Senior A 8.750 11T 8.750 11 8.525 14 9.425 5T 35.450 12
2019-02-01 St. Valentines Classic Gym Stars ETC 5B XG 12 yrs. 8.500 11 8.050 13 7.600 13 8.875 10 33.025 12
2019-01-11 St Jude Benefit Meet Gym Stars ETC 5C XG Sr A 9.000 8T 9.125 7 8.250 9T 9.000 7T 35.375 8
2018-11-17 Paul Hamm Thanksgiving Class WOMENS Gym Stars ETC 8 XG Middle 8.800 10 8.975 5 8.450 7 8.600 14 34.825 6
2018-04-26 Xcel Region 5 Championships Gym Stars ETC 9B XS Jr G 9.425 5 9.300 14 9.500 1 9.600 1 37.825 1
2018-04-06 XCEL State Championships Gym Stars ETC 5A XS Jr D 9.475 5T 9.550 2T 9.575 1T 9.150 13 37.750 5
2018-03-09 Lucky Invitational Gym Stars ETC B10 XS Jr B 9.150 2 9.700 4T 9.825 1 9.525 2 38.200 1
2018-02-16 Big Classic Gym Stars ETC 9A XS Junior C 9.100 8 9.550 4T 9.700 2 9.575 1 37.925 2
2018-01-12 St Jude Benefit Meet Gym Stars ETC 9C XS SrA 8.700 7T 9.325 4T 9.150 10 9.400 4 36.575 7T
2017-12-14 2017 Women's Hawaiian Pineapple Classic Gym Stars ETC 3A XS Age11 8.600 4T 9.300 4 9.450 2 9.425 3T 36.775 2
2017-11-17 SCGA Classic Gym Stars ETC 4 XS JrB 8.700 6 9.400 5 9.375 2 9.250 2 36.725 3
2017-05-11 2017 Region 5 Xcel Championships Gym Stars ETC 5B XS Jr C 8.900 25T 9.150 24T 9.150 16T 9.325 9T 36.525 23T
2017-04-21 2017 Illinois Xcel State Championships Gym Stars ETC 6 XS Jr A 8.550 22 9.300 13T 9.275 8T 9.350 5T 36.475 11
2017-03-10 Lucky Invitational Gym Stars ETC B07 XS Jr B 9.125 12 9.300 10T 9.475 6 9.400 1T 37.300 5
2017-02-24 Kinetic Classic Gym Stars ETC 8 XS All Ages 8.450 40T 9.100 45T 9.450 24T 9.100 23T 36.100 34T
2017-02-10 IGI Chicago Style Gymnastics Meet Gym Stars ETC 631L XS JrC 8.400 7 8.850 6 9.400 3 9.200 4 35.850 5
2016-12-15 2016 Hawaiian Pineapple Sanction Gym Stars ETC 7B XS Age10 9.100 5 8.500 13 8.750 11T 9.150 3 35.500 10
Get your scores on
a t-shirt, pin, or hoodie

www.lazysuits.com